sensor_id;sensor_type;location;lat;lon;timestamp;temperature;humidity
47825;DHT22;33589;48.242;14.676;2023-08-17T00:01:40;23.80;55.50
47825;DHT22;33589;48.242;14.676;2023-08-17T00:04:06;23.70;56.00
47825;DHT22;33589;48.242;14.676;2023-08-17T00:06:32;23.80;55.10
47825;DHT22;33589;48.242;14.676;2023-08-17T00:08:58;24.00;54.70
47825;DHT22;33589;48.242;14.676;2023-08-17T00:11:23;24.10;54.80
47825;DHT22;33589;48.242;14.676;2023-08-17T00:13:49;24.10;54.60
47825;DHT22;33589;48.242;14.676;2023-08-17T00:16:14;24.00;55.00
47825;DHT22;33589;48.242;14.676;2023-08-17T00:18:40;23.80;55.50
47825;DHT22;33589;48.242;14.676;2023-08-17T00:21:06;23.50;56.30
47825;DHT22;33589;48.242;14.676;2023-08-17T00:23:31;23.40;56.70
47825;DHT22;33589;48.242;14.676;2023-08-17T00:25:57;23.50;55.80
47825;DHT22;33589;48.242;14.676;2023-08-17T00:28:23;23.70;54.90
47825;DHT22;33589;48.242;14.676;2023-08-17T00:30:49;23.70;55.10
47825;DHT22;33589;48.242;14.676;2023-08-17T00:33:14;23.60;55.20
47825;DHT22;33589;48.242;14.676;2023-08-17T00:35:40;23.70;55.10
47825;DHT22;33589;48.242;14.676;2023-08-17T00:38:06;23.80;54.70
47825;DHT22;33589;48.242;14.676;2023-08-17T00:40:31;23.90;55.00
47825;DHT22;33589;48.242;14.676;2023-08-17T00:42:57;23.70;54.60
47825;DHT22;33589;48.242;14.676;2023-08-17T00:45:23;23.70;54.60
47825;DHT22;33589;48.242;14.676;2023-08-17T00:47:49;23.60;54.50
47825;DHT22;33589;48.242;14.676;2023-08-17T00:50:15;23.70;55.00
47825;DHT22;33589;48.242;14.676;2023-08-17T00:52:42;23.70;54.80
47825;DHT22;33589;48.242;14.676;2023-08-17T00:55:09;23.80;54.90
47825;DHT22;33589;48.242;14.676;2023-08-17T00:57:36;23.60;55.00
47825;DHT22;33589;48.242;14.676;2023-08-17T01:00:03;23.50;55.00
47825;DHT22;33589;48.242;14.676;2023-08-17T01:02:30;23.40;55.10
47825;DHT22;33589;48.242;14.676;2023-08-17T01:04:56;23.40;55.20
47825;DHT22;33589;48.242;14.676;2023-08-17T01:07:24;23.50;55.00
47825;DHT22;33589;48.242;14.676;2023-08-17T01:09:50;23.40;55.20
47825;DHT22;33589;48.242;14.676;2023-08-17T01:12:36;23.00;56.30
47825;DHT22;33589;48.242;14.676;2023-08-17T01:15:11;22.80;56.30
47825;DHT22;33589;48.242;14.676;2023-08-17T01:20:16;23.10;56.50
47825;DHT22;33589;48.242;14.676;2023-08-17T01:22:45;23.30;56.00
47825;DHT22;33589;48.242;14.676;2023-08-17T01:25:11;23.20;55.60
47825;DHT22;33589;48.242;14.676;2023-08-17T01:27:40;23.20;55.10
47825;DHT22;33589;48.242;14.676;2023-08-17T01:30:08;23.30;55.00
47825;DHT22;33589;48.242;14.676;2023-08-17T01:32:56;23.20;55.20
47825;DHT22;33589;48.242;14.676;2023-08-17T01:37:59;23.30;55.40
47825;DHT22;33589;48.242;14.676;2023-08-17T01:40:31;23.40;55.30
47825;DHT22;33589;48.242;14.676;2023-08-17T01:42:58;23.50;55.00
47825;DHT22;33589;48.242;14.676;2023-08-17T01:45:25;23.40;55.80
47825;DHT22;33589;48.242;14.676;2023-08-17T01:47:51;23.00;56.10
47825;DHT22;33589;48.242;14.676;2023-08-17T01:50:16;22.70;56.70
47825;DHT22;33589;48.242;14.676;2023-08-17T01:52:42;22.60;57.10
47825;DHT22;33589;48.242;14.676;2023-08-17T01:55:08;22.50;57.20
47825;DHT22;33589;48.242;14.676;2023-08-17T01:57:35;22.50;57.50
47825;DHT22;33589;48.242;14.676;2023-08-17T02:00:05;22.50;57.40
47825;DHT22;33589;48.242;14.676;2023-08-17T02:02:39;22.60;57.40
47825;DHT22;33589;48.242;14.676;2023-08-17T02:05:06;22.30;58.30
47825;DHT22;33589;48.242;14.676;2023-08-17T02:07:32;22.10;58.50
47825;DHT22;33589;48.242;14.676;2023-08-17T02:09:57;22.20;58.60
47825;DHT22;33589;48.242;14.676;2023-08-17T02:12:25;22.20;58.80
47825;DHT22;33589;48.242;14.676;2023-08-17T02:14:51;22.00;58.70
47825;DHT22;33589;48.242;14.676;2023-08-17T02:17:16;21.90;58.80
47825;DHT22;33589;48.242;14.676;2023-08-17T02:19:44;22.10;59.40
47825;DHT22;33589;48.242;14.676;2023-08-17T02:22:10;22.30;58.50
47825;DHT22;33589;48.242;14.676;2023-08-17T02:24:36;22.20;58.10
47825;DHT22;33589;48.242;14.676;2023-08-17T02:27:02;22.30;58.30
47825;DHT22;33589;48.242;14.676;2023-08-17T02:29:28;22.40;57.70
47825;DHT22;33589;48.242;14.676;2023-08-17T02:31:53;22.40;58.30
47825;DHT22;33589;48.242;14.676;2023-08-17T02:34:19;22.40;57.90
47825;DHT22;33589;48.242;14.676;2023-08-17T02:36:45;22.50;57.90
47825;DHT22;33589;48.242;14.676;2023-08-17T02:39:10;22.30;58.00
47825;DHT22;33589;48.242;14.676;2023-08-17T02:41:36;22.20;58.50
47825;DHT22;33589;48.242;14.676;2023-08-17T02:44:02;22.30;58.60
47825;DHT22;33589;48.242;14.676;2023-08-17T02:46:28;22.40;58.50
47825;DHT22;33589;48.242;14.676;2023-08-17T02:48:53;22.10;59.30
47825;DHT22;33589;48.242;14.676;2023-08-17T02:51:19;21.90;59.30
47825;DHT22;33589;48.242;14.676;2023-08-17T02:53:44;22.00;58.80
47825;DHT22;33589;48.242;14.676;2023-08-17T02:56:10;22.10;58.80
47825;DHT22;33589;48.242;14.676;2023-08-17T02:58:40;22.30;58.30
47825;DHT22;33589;48.242;14.676;2023-08-17T03:01:07;22.20;58.40
47825;DHT22;33589;48.242;14.676;2023-08-17T03:03:32;22.10;58.40
47825;DHT22;33589;48.242;14.676;2023-08-17T03:05:58;22.20;57.90
47825;DHT22;33589;48.242;14.676;2023-08-17T03:08:24;22.20;57.90
47825;DHT22;33589;48.242;14.676;2023-08-17T03:10:49;21.90;58.40
47825;DHT22;33589;48.242;14.676;2023-08-17T03:13:17;21.70;59.30
47825;DHT22;33589;48.242;14.676;2023-08-17T03:15:43;21.60;59.70
47825;DHT22;33589;48.242;14.676;2023-08-17T03:18:08;21.70;59.50
47825;DHT22;33589;48.242;14.676;2023-08-17T03:20:36;21.90;58.90
47825;DHT22;33589;48.242;14.676;2023-08-17T03:23:01;22.10;58.20
47825;DHT22;33589;48.242;14.676;2023-08-17T03:25:27;22.00;57.70
47825;DHT22;33589;48.242;14.676;2023-08-17T03:27:53;22.10;57.70
47825;DHT22;33589;48.242;14.676;2023-08-17T03:30:20;22.00;57.40
47825;DHT22;33589;48.242;14.676;2023-08-17T03:32:46;21.90;57.70
47825;DHT22;33589;48.242;14.676;2023-08-17T03:35:11;21.70;58.10
47825;DHT22;33589;48.242;14.676;2023-08-17T03:37:38;21.70;58.20
47825;DHT22;33589;48.242;14.676;2023-08-17T03:40:05;21.80;57.80
47825;DHT22;33589;48.242;14.676;2023-08-17T03:42:31;21.80;57.60
47825;DHT22;33589;48.242;14.676;2023-08-17T03:44:57;21.70;57.90
47825;DHT22;33589;48.242;14.676;2023-08-17T03:47:22;21.70;58.10
47825;DHT22;33589;48.242;14.676;2023-08-17T03:49:48;21.70;58.20
47825;DHT22;33589;48.242;14.676;2023-08-17T03:52:14;21.80;57.70
47825;DHT22;33589;48.242;14.676;2023-08-17T03:54:40;21.80;57.80
47825;DHT22;33589;48.242;14.676;2023-08-17T03:57:05;21.80;57.90
47825;DHT22;33589;48.242;14.676;2023-08-17T03:59:31;21.80;58.00
47825;DHT22;33589;48.242;14.676;2023-08-17T04:01:58;21.80;57.90
47825;DHT22;33589;48.242;14.676;2023-08-17T04:04:25;21.90;58.00
47825;DHT22;33589;48.242;14.676;2023-08-17T04:06:50;21.80;58.10
47825;DHT22;33589;48.242;14.676;2023-08-17T04:09:16;21.70;58.40
47825;DHT22;33589;48.242;14.676;2023-08-17T04:11:42;21.70;59.20
47825;DHT22;33589;48.242;14.676;2023-08-17T04:14:07;21.70;58.70
47825;DHT22;33589;48.242;14.676;2023-08-17T04:16:34;21.60;59.00
47825;DHT22;33589;48.242;14.676;2023-08-17T04:19:00;21.50;59.20
47825;DHT22;33589;48.242;14.676;2023-08-17T04:21:26;21.60;59.20
47825;DHT22;33589;48.242;14.676;2023-08-17T04:23:52;21.50;59.30
47825;DHT22;33589;48.242;14.676;2023-08-17T04:26:19;21.40;59.80
47825;DHT22;33589;48.242;14.676;2023-08-17T04:28:44;21.40;59.80
47825;DHT22;33589;48.242;14.676;2023-08-17T04:31:10;21.30;60.40
47825;DHT22;33589;48.242;14.676;2023-08-17T04:33:40;21.20;61.00
47825;DHT22;33589;48.242;14.676;2023-08-17T04:36:05;21.10;60.50
47825;DHT22;33589;48.242;14.676;2023-08-17T04:38:31;21.20;60.70
47825;DHT22;33589;48.242;14.676;2023-08-17T04:40:57;21.00;61.10
47825;DHT22;33589;48.242;14.676;2023-08-17T04:43:23;21.00;61.00
47825;DHT22;33589;48.242;14.676;2023-08-17T04:45:49;21.20;60.80
47825;DHT22;33589;48.242;14.676;2023-08-17T04:48:15;21.10;60.40
47825;DHT22;33589;48.242;14.676;2023-08-17T04:50:41;21.20;59.60
47825;DHT22;33589;48.242;14.676;2023-08-17T04:53:07;21.30;59.90
47825;DHT22;33589;48.242;14.676;2023-08-17T04:55:33;21.30;60.10
47825;DHT22;33589;48.242;14.676;2023-08-17T04:57:59;21.40;60.20
47825;DHT22;33589;48.242;14.676;2023-08-17T05:00:26;21.50;59.90
47825;DHT22;33589;48.242;14.676;2023-08-17T05:02:55;21.50;59.50
47825;DHT22;33589;48.242;14.676;2023-08-17T05:05:21;21.60;59.80
47825;DHT22;33589;48.242;14.676;2023-08-17T05:07:47;21.60;59.40
47825;DHT22;33589;48.242;14.676;2023-08-17T05:10:13;21.70;59.30
47825;DHT22;33589;48.242;14.676;2023-08-17T05:12:40;21.60;59.30
47825;DHT22;33589;48.242;14.676;2023-08-17T05:15:06;21.80;59.10
47825;DHT22;33589;48.242;14.676;2023-08-17T05:17:32;21.70;59.70
47825;DHT22;33589;48.242;14.676;2023-08-17T05:19:57;21.70;59.80
47825;DHT22;33589;48.242;14.676;2023-08-17T05:22:23;21.80;59.80
47825;DHT22;33589;48.242;14.676;2023-08-17T05:24:49;21.80;59.60
47825;DHT22;33589;48.242;14.676;2023-08-17T05:27:17;21.60;60.20
47825;DHT22;33589;48.242;14.676;2023-08-17T05:29:43;21.40;61.00
47825;DHT22;33589;48.242;14.676;2023-08-17T05:32:09;21.40;61.10
47825;DHT22;33589;48.242;14.676;2023-08-17T05:34:36;21.60;60.40
47825;DHT22;33589;48.242;14.676;2023-08-17T05:37:02;21.80;60.60
47825;DHT22;33589;48.242;14.676;2023-08-17T05:39:28;22.00;60.00
47825;DHT22;33589;48.242;14.676;2023-08-17T05:41:54;22.30;59.50
47825;DHT22;33589;48.242;14.676;2023-08-17T05:44:20;22.40;59.50
47825;DHT22;33589;48.242;14.676;2023-08-17T05:46:45;22.30;60.60
47825;DHT22;33589;48.242;14.676;2023-08-17T05:49:11;22.20;60.80
47825;DHT22;33589;48.242;14.676;2023-08-17T05:51:37;22.30;60.60
47825;DHT22;33589;48.242;14.676;2023-08-17T05:54:03;22.50;60.50
47825;DHT22;33589;48.242;14.676;2023-08-17T05:56:29;22.60;60.50
47825;DHT22;33589;48.242;14.676;2023-08-17T05:58:54;22.80;59.90
47825;DHT22;33589;48.242;14.676;2023-08-17T06:01:20;23.00;60.00
47825;DHT22;33589;48.242;14.676;2023-08-17T06:03:45;23.20;59.70
47825;DHT22;33589;48.242;14.676;2023-08-17T06:06:11;23.30;59.40
47825;DHT22;33589;48.242;14.676;2023-08-17T06:08:37;23.50;59.00
47825;DHT22;33589;48.242;14.676;2023-08-17T06:11:02;23.60;58.90
47825;DHT22;33589;48.242;14.676;2023-08-17T06:13:28;23.40;58.70
47825;DHT22;33589;48.242;14.676;2023-08-17T06:15:56;23.50;59.50
47825;DHT22;33589;48.242;14.676;2023-08-17T06:18:22;23.10;59.30
47825;DHT22;33589;48.242;14.676;2023-08-17T06:20:47;23.50;59.90
47825;DHT22;33589;48.242;14.676;2023-08-17T06:23:16;23.50;59.90
47825;DHT22;33589;48.242;14.676;2023-08-17T06:25:42;23.50;60.00
47825;DHT22;33589;48.242;14.676;2023-08-17T06:28:07;23.50;59.70
47825;DHT22;33589;48.242;14.676;2023-08-17T06:30:33;23.50;59.80
47825;DHT22;33589;48.242;14.676;2023-08-17T06:32:58;23.60;59.70
47825;DHT22;33589;48.242;14.676;2023-08-17T06:35:24;23.70;59.60
47825;DHT22;33589;48.242;14.676;2023-08-17T06:37:50;23.70;60.00
47825;DHT22;33589;48.242;14.676;2023-08-17T06:40:16;23.70;60.70
47825;DHT22;33589;48.242;14.676;2023-08-17T06:42:42;23.50;60.00
47825;DHT22;33589;48.242;14.676;2023-08-17T06:45:08;23.30;60.20
47825;DHT22;33589;48.242;14.676;2023-08-17T06:47:34;23.30;59.90
47825;DHT22;33589;48.242;14.676;2023-08-17T06:49:59;23.30;59.20
47825;DHT22;33589;48.242;14.676;2023-08-17T06:52:25;23.30;58.70
47825;DHT22;33589;48.242;14.676;2023-08-17T06:54:50;23.40;59.90
47825;DHT22;33589;48.242;14.676;2023-08-17T06:57:16;23.40;60.00
47825;DHT22;33589;48.242;14.676;2023-08-17T06:59:42;23.50;60.10
47825;DHT22;33589;48.242;14.676;2023-08-17T07:02:11;23.70;60.80
47825;DHT22;33589;48.242;14.676;2023-08-17T07:04:36;23.90;60.40
47825;DHT22;33589;48.242;14.676;2023-08-17T07:07:03;24.10;60.10
47825;DHT22;33589;48.242;14.676;2023-08-17T07:09:28;24.30;59.80
47825;DHT22;33589;48.242;14.676;2023-08-17T07:11:54;24.40;59.40
47825;DHT22;33589;48.242;14.676;2023-08-17T07:14:20;24.60;59.70
47825;DHT22;33589;48.242;14.676;2023-08-17T07:16:45;24.80;58.90
47825;DHT22;33589;48.242;14.676;2023-08-17T07:19:11;24.90;59.00
47825;DHT22;33589;48.242;14.676;2023-08-17T07:21:38;24.70;59.60
47825;DHT22;33589;48.242;14.676;2023-08-17T07:24:15;24.70;59.50
47825;DHT22;33589;48.242;14.676;2023-08-17T07:26:41;24.80;59.30
47825;DHT22;33589;48.242;14.676;2023-08-17T07:29:07;24.90;59.90
47825;DHT22;33589;48.242;14.676;2023-08-17T07:31:32;25.00;60.60
47825;DHT22;33589;48.242;14.676;2023-08-17T07:34:02;24.90;61.60
47825;DHT22;33589;48.242;14.676;2023-08-17T07:36:28;24.80;60.30
47825;DHT22;33589;48.242;14.676;2023-08-17T07:38:53;24.80;60.90
47825;DHT22;33589;48.242;14.676;2023-08-17T07:41:19;24.90;61.60
47825;DHT22;33589;48.242;14.676;2023-08-17T07:43:45;25.10;62.20
47825;DHT22;33589;48.242;14.676;2023-08-17T07:46:10;25.30;62.60
47825;DHT22;33589;48.242;14.676;2023-08-17T07:48:36;25.20;63.90
47825;DHT22;33589;48.242;14.676;2023-08-17T07:51:01;25.40;63.50
47825;DHT22;33589;48.242;14.676;2023-08-17T07:53:27;25.60;62.30
47825;DHT22;33589;48.242;14.676;2023-08-17T07:55:53;25.70;61.60
47825;DHT22;33589;48.242;14.676;2023-08-17T07:58:18;25.50;58.50
47825;DHT22;33589;48.242;14.676;2023-08-17T08:00:44;25.40;59.80
47825;DHT22;33589;48.242;14.676;2023-08-17T08:03:10;25.70;60.90
47825;DHT22;33589;48.242;14.676;2023-08-17T08:05:35;26.50;59.80
47825;DHT22;33589;48.242;14.676;2023-08-17T08:08:01;28.00;56.80
47825;DHT22;33589;48.242;14.676;2023-08-17T08:10:27;29.00;52.80
47825;DHT22;33589;48.242;14.676;2023-08-17T08:12:54;29.60;49.70
47825;DHT22;33589;48.242;14.676;2023-08-17T08:15:19;30.00;47.30
47825;DHT22;33589;48.242;14.676;2023-08-17T08:17:45;29.40;47.20
47825;DHT22;33589;48.242;14.676;2023-08-17T08:20:11;29.20;48.20
47825;DHT22;33589;48.242;14.676;2023-08-17T08:22:36;28.90;48.40
47825;DHT22;33589;48.242;14.676;2023-08-17T08:25:02;29.00;47.90
47825;DHT22;33589;48.242;14.676;2023-08-17T08:27:28;28.80;47.40
47825;DHT22;33589;48.242;14.676;2023-08-17T08:29:53;28.70;48.10
47825;DHT22;33589;48.242;14.676;2023-08-17T08:32:19;28.70;51.00
47825;DHT22;33589;48.242;14.676;2023-08-17T08:34:45;28.10;52.30
47825;DHT22;33589;48.242;14.676;2023-08-17T08:37:10;28.00;53.10
47825;DHT22;33589;48.242;14.676;2023-08-17T08:39:49;27.90;54.10
47825;DHT22;33589;48.242;14.676;2023-08-17T08:44:49;27.60;55.10
47825;DHT22;33589;48.242;14.676;2023-08-17T08:47:17;28.60;57.00
47825;DHT22;33589;48.242;14.676;2023-08-17T08:50:04;31.00;55.10
47825;DHT22;33589;48.242;14.676;2023-08-17T08:54:58;36.30;41.60
47825;DHT22;33589;48.242;14.676;2023-08-17T08:57:28;37.20;39.80
47825;DHT22;33589;48.242;14.676;2023-08-17T08:59:55;37.50;36.80
47825;DHT22;33589;48.242;14.676;2023-08-17T09:02:22;36.50;38.20
47825;DHT22;33589;48.242;14.676;2023-08-17T09:04:48;35.10;39.10
47825;DHT22;33589;48.242;14.676;2023-08-17T09:07:14;34.40;41.60
47825;DHT22;33589;48.242;14.676;2023-08-17T09:09:42;34.50;40.70
47825;DHT22;33589;48.242;14.676;2023-08-17T09:12:09;33.50;42.60
47825;DHT22;33589;48.242;14.676;2023-08-17T09:14:36;34.20;42.60
47825;DHT22;33589;48.242;14.676;2023-08-17T09:17:03;33.90;43.60
47825;DHT22;33589;48.242;14.676;2023-08-17T09:19:32;33.50;43.90
47825;DHT22;33589;48.242;14.676;2023-08-17T09:21:58;33.60;43.40
47825;DHT22;33589;48.242;14.676;2023-08-17T09:24:23;33.20;44.00
47825;DHT22;33589;48.242;14.676;2023-08-17T09:26:49;32.70;44.30
47825;DHT22;33589;48.242;14.676;2023-08-17T09:29:19;32.40;44.40
47825;DHT22;33589;48.242;14.676;2023-08-17T09:31:46;32.60;43.80
47825;DHT22;33589;48.242;14.676;2023-08-17T09:34:14;32.40;44.30
47825;DHT22;33589;48.242;14.676;2023-08-17T09:36:40;31.80;44.50
47825;DHT22;33589;48.242;14.676;2023-08-17T09:39:06;32.40;43.20
47825;DHT22;33589;48.242;14.676;2023-08-17T09:41:38;32.80;42.20
47825;DHT22;33589;48.242;14.676;2023-08-17T09:44:07;32.60;42.80
47825;DHT22;33589;48.242;14.676;2023-08-17T09:46:33;32.70;43.70
47825;DHT22;33589;48.242;14.676;2023-08-17T09:49:02;33.40;43.00
47825;DHT22;33589;48.242;14.676;2023-08-17T09:51:30;34.50;40.00
47825;DHT22;33589;48.242;14.676;2023-08-17T09:53:56;35.90;38.00
47825;DHT22;33589;48.242;14.676;2023-08-17T09:56:23;36.20;37.50
47825;DHT22;33589;48.242;14.676;2023-08-17T09:58:50;35.80;37.50
47825;DHT22;33589;48.242;14.676;2023-08-17T10:01:15;34.10;38.60
47825;DHT22;33589;48.242;14.676;2023-08-17T10:03:43;34.00;38.40
47825;DHT22;33589;48.242;14.676;2023-08-17T10:06:13;34.10;39.60
47825;DHT22;33589;48.242;14.676;2023-08-17T10:08:45;34.20;38.70
47825;DHT22;33589;48.242;14.676;2023-08-17T10:11:13;33.70;39.10
47825;DHT22;33589;48.242;14.676;2023-08-17T10:13:46;32.80;40.10
47825;DHT22;33589;48.242;14.676;2023-08-17T10:16:36;32.50;40.90
47825;DHT22;33589;48.242;14.676;2023-08-17T10:25:01;30.10;49.60
47825;DHT22;33589;48.242;14.676;2023-08-17T10:27:27;30.60;49.70
47825;DHT22;33589;48.242;14.676;2023-08-17T10:29:53;31.90;47.30
47825;DHT22;33589;48.242;14.676;2023-08-17T10:32:22;33.00;44.30
47825;DHT22;33589;48.242;14.676;2023-08-17T10:34:50;33.60;42.90
47825;DHT22;33589;48.242;14.676;2023-08-17T10:37:18;34.10;43.00
47825;DHT22;33589;48.242;14.676;2023-08-17T10:39:48;34.20;43.30
47825;DHT22;33589;48.242;14.676;2023-08-17T10:42:14;34.30;44.70
47825;DHT22;33589;48.242;14.676;2023-08-17T10:44:45;34.30;47.50
47825;DHT22;33589;48.242;14.676;2023-08-17T10:47:31;34.30;47.20
47825;DHT22;33589;48.242;14.676;2023-08-17T10:52:32;34.90;39.40
47825;DHT22;33589;48.242;14.676;2023-08-17T10:55:08;35.70;38.30
47825;DHT22;33589;48.242;14.676;2023-08-17T10:57:39;36.00;38.20
47825;DHT22;33589;48.242;14.676;2023-08-17T11:02:39;35.50;38.50
47825;DHT22;33589;48.242;14.676;2023-08-17T11:05:05;34.90;39.60
47825;DHT22;33589;48.242;14.676;2023-08-17T11:12:44;31.80;44.10
47825;DHT22;33589;48.242;14.676;2023-08-17T11:15:10;31.70;43.90
47825;DHT22;33589;48.242;14.676;2023-08-17T11:17:36;31.60;44.10
47825;DHT22;33589;48.242;14.676;2023-08-17T11:20:02;31.40;44.40
47825;DHT22;33589;48.242;14.676;2023-08-17T11:22:28;31.60;43.70
47825;DHT22;33589;48.242;14.676;2023-08-17T11:24:53;31.30;43.90
47825;DHT22;33589;48.242;14.676;2023-08-17T11:27:20;30.30;45.20
47825;DHT22;33589;48.242;14.676;2023-08-17T11:29:46;30.20;45.80
47825;DHT22;33589;48.242;14.676;2023-08-17T11:32:15;30.30;45.80
47825;DHT22;33589;48.242;14.676;2023-08-17T11:34:41;30.40;44.60
47825;DHT22;33589;48.242;14.676;2023-08-17T11:37:06;30.20;44.30
47825;DHT22;33589;48.242;14.676;2023-08-17T11:39:35;30.00;44.20
47825;DHT22;33589;48.242;14.676;2023-08-17T11:42:01;29.90;44.70
47825;DHT22;33589;48.242;14.676;2023-08-17T11:44:26;29.80;44.80
47825;DHT22;33589;48.242;14.676;2023-08-17T11:46:52;30.00;44.90
47825;DHT22;33589;48.242;14.676;2023-08-17T11:49:18;29.60;45.80
47825;DHT22;33589;48.242;14.676;2023-08-17T11:51:44;29.50;46.00
47825;DHT22;33589;48.242;14.676;2023-08-17T11:54:10;29.30;47.10
47825;DHT22;33589;48.242;14.676;2023-08-17T11:56:37;29.00;47.60
47825;DHT22;33589;48.242;14.676;2023-08-17T11:59:09;29.00;48.00
47825;DHT22;33589;48.242;14.676;2023-08-17T12:01:37;29.00;48.50
47825;DHT22;33589;48.242;14.676;2023-08-17T12:04:06;28.90;47.70
47825;DHT22;33589;48.242;14.676;2023-08-17T12:06:32;28.60;47.40
47825;DHT22;33589;48.242;14.676;2023-08-17T12:08:58;28.30;48.00
47825;DHT22;33589;48.242;14.676;2023-08-17T12:11:24;28.10;48.50
47825;DHT22;33589;48.242;14.676;2023-08-17T12:13:53;28.20;47.50
47825;DHT22;33589;48.242;14.676;2023-08-17T12:16:20;28.40;46.50
47825;DHT22;33589;48.242;14.676;2023-08-17T12:18:48;28.70;45.70
47825;DHT22;33589;48.242;14.676;2023-08-17T12:21:14;29.10;45.00
47825;DHT22;33589;48.242;14.676;2023-08-17T12:23:40;29.60;44.30
47825;DHT22;33589;48.242;14.676;2023-08-17T12:26:06;29.90;42.30
47825;DHT22;33589;48.242;14.676;2023-08-17T12:28:32;30.10;39.40
47825;DHT22;33589;48.242;14.676;2023-08-17T12:31:03;30.00;40.70
47825;DHT22;33589;48.242;14.676;2023-08-17T12:33:29;30.00;39.80
47825;DHT22;33589;48.242;14.676;2023-08-17T12:35:55;30.00;40.30
47825;DHT22;33589;48.242;14.676;2023-08-17T12:38:23;30.30;40.20
47825;DHT22;33589;48.242;14.676;2023-08-17T12:40:49;30.50;40.20
47825;DHT22;33589;48.242;14.676;2023-08-17T12:43:14;30.90;38.10
47825;DHT22;33589;48.242;14.676;2023-08-17T12:45:40;30.70;38.00
47825;DHT22;33589;48.242;14.676;2023-08-17T12:48:06;30.70;38.90
47825;DHT22;33589;48.242;14.676;2023-08-17T12:50:31;31.00;38.60
47825;DHT22;33589;48.242;14.676;2023-08-17T12:52:57;31.20;36.20
47825;DHT22;33589;48.242;14.676;2023-08-17T12:55:23;31.10;36.40
47825;DHT22;33589;48.242;14.676;2023-08-17T12:57:48;31.00;36.20
47825;DHT22;33589;48.242;14.676;2023-08-17T13:00:14;30.70;37.30
47825;DHT22;33589;48.242;14.676;2023-08-17T13:02:40;30.30;37.50
47825;DHT22;33589;48.242;14.676;2023-08-17T13:05:06;30.20;37.30
47825;DHT22;33589;48.242;14.676;2023-08-17T13:07:31;30.20;37.50
47825;DHT22;33589;48.242;14.676;2023-08-17T13:09:57;30.40;37.40
47825;DHT22;33589;48.242;14.676;2023-08-17T13:12:22;30.30;36.80
47825;DHT22;33589;48.242;14.676;2023-08-17T13:14:48;30.40;36.80
47825;DHT22;33589;48.242;14.676;2023-08-17T13:17:13;30.40;37.40
47825;DHT22;33589;48.242;14.676;2023-08-17T13:19:42;30.40;37.20
47825;DHT22;33589;48.242;14.676;2023-08-17T13:22:08;30.50;37.30
47825;DHT22;33589;48.242;14.676;2023-08-17T13:24:33;30.50;37.60
47825;DHT22;33589;48.242;14.676;2023-08-17T13:26:59;30.60;37.60
47825;DHT22;33589;48.242;14.676;2023-08-17T13:29:24;30.70;36.40
47825;DHT22;33589;48.242;14.676;2023-08-17T13:31:50;30.60;35.90
47825;DHT22;33589;48.242;14.676;2023-08-17T13:34:16;30.50;36.70
47825;DHT22;33589;48.242;14.676;2023-08-17T13:36:42;30.40;37.20
47825;DHT22;33589;48.242;14.676;2023-08-17T13:39:07;30.50;37.50
47825;DHT22;33589;48.242;14.676;2023-08-17T13:41:33;30.40;38.20
47825;DHT22;33589;48.242;14.676;2023-08-17T13:43:59;30.40;38.40
47825;DHT22;33589;48.242;14.676;2023-08-17T13:46:26;30.50;38.70
47825;DHT22;33589;48.242;14.676;2023-08-17T13:48:51;30.50;39.00
47825;DHT22;33589;48.242;14.676;2023-08-17T13:51:19;30.20;39.00
47825;DHT22;33589;48.242;14.676;2023-08-17T13:53:45;30.30;39.20
47825;DHT22;33589;48.242;14.676;2023-08-17T13:56:10;30.10;39.10
47825;DHT22;33589;48.242;14.676;2023-08-17T13:58:36;30.30;39.40
47825;DHT22;33589;48.242;14.676;2023-08-17T14:01:02;30.30;40.10
47825;DHT22;33589;48.242;14.676;2023-08-17T14:03:27;30.30;38.80
47825;DHT22;33589;48.242;14.676;2023-08-17T14:05:53;30.30;38.40
47825;DHT22;33589;48.242;14.676;2023-08-17T14:08:19;30.30;38.20
47825;DHT22;33589;48.242;14.676;2023-08-17T14:10:45;30.40;38.40
47825;DHT22;33589;48.242;14.676;2023-08-17T14:13:10;30.40;38.30
47825;DHT22;33589;48.242;14.676;2023-08-17T14:15:36;30.50;37.80
47825;DHT22;33589;48.242;14.676;2023-08-17T14:18:02;30.50;38.10
47825;DHT22;33589;48.242;14.676;2023-08-17T14:20:29;30.60;38.60
47825;DHT22;33589;48.242;14.676;2023-08-17T14:22:54;30.60;38.10
47825;DHT22;33589;48.242;14.676;2023-08-17T14:25:20;30.70;38.40
47825;DHT22;33589;48.242;14.676;2023-08-17T14:27:46;30.70;37.90
47825;DHT22;33589;48.242;14.676;2023-08-17T14:30:12;30.60;38.10
47825;DHT22;33589;48.242;14.676;2023-08-17T14:32:37;30.50;38.40
47825;DHT22;33589;48.242;14.676;2023-08-17T14:35:03;30.50;38.00
47825;DHT22;33589;48.242;14.676;2023-08-17T14:37:29;30.40;38.00
47825;DHT22;33589;48.242;14.676;2023-08-17T14:39:54;30.40;38.30
47825;DHT22;33589;48.242;14.676;2023-08-17T14:42:20;30.40;38.10
47825;DHT22;33589;48.242;14.676;2023-08-17T14:44:46;30.30;38.10
47825;DHT22;33589;48.242;14.676;2023-08-17T14:47:11;30.20;38.40
47825;DHT22;33589;48.242;14.676;2023-08-17T14:49:37;30.40;37.90
47825;DHT22;33589;48.242;14.676;2023-08-17T14:52:03;30.50;37.80
47825;DHT22;33589;48.242;14.676;2023-08-17T14:54:28;30.60;37.30
47825;DHT22;33589;48.242;14.676;2023-08-17T14:56:54;30.60;37.20
47825;DHT22;33589;48.242;14.676;2023-08-17T14:59:20;30.70;37.30
47825;DHT22;33589;48.242;14.676;2023-08-17T15:01:45;30.60;37.40
47825;DHT22;33589;48.242;14.676;2023-08-17T15:04:11;30.50;37.50
47825;DHT22;33589;48.242;14.676;2023-08-17T15:06:36;30.60;37.60
47825;DHT22;33589;48.242;14.676;2023-08-17T15:09:02;30.70;37.50
47825;DHT22;33589;48.242;14.676;2023-08-17T15:11:30;30.70;37.30
47825;DHT22;33589;48.242;14.676;2023-08-17T15:13:56;30.50;37.20
47825;DHT22;33589;48.242;14.676;2023-08-17T15:16:22;30.40;36.80
47825;DHT22;33589;48.242;14.676;2023-08-17T15:18:52;30.40;36.80
47825;DHT22;33589;48.242;14.676;2023-08-17T15:21:18;30.50;36.80
47825;DHT22;33589;48.242;14.676;2023-08-17T15:23:44;30.40;36.80
47825;DHT22;33589;48.242;14.676;2023-08-17T15:26:09;30.50;37.20
47825;DHT22;33589;48.242;14.676;2023-08-17T15:28:36;30.70;37.00
47825;DHT22;33589;48.242;14.676;2023-08-17T15:31:03;30.70;36.40
47825;DHT22;33589;48.242;14.676;2023-08-17T15:33:29;30.60;36.80
47825;DHT22;33589;48.242;14.676;2023-08-17T15:35:55;30.60;36.90
47825;DHT22;33589;48.242;14.676;2023-08-17T15:38:23;30.70;36.50